Hlavní strana
METAR-TAF:

METAR-TAF

Letiště :

Pula, Chorvatsko

zeměpisná šířka: 44-54N, zeměpisná délka: 013-55E, výška: 63 m

Aktuální stav počasí

Zpráva byla vytvořena před 20 hodinami a 32 minutami, v 15:00 UTC
Východoseverovýchodní vítr 13 kt
Teplota 5°C
Vlhkost vzduchu 60%
Tlak 1007 hPa
Viditelnost 10 km a více
Polojasno ve výšce 4500 ft
Zataženo ve výšce 5500 ft

METAR: LDPL 201500Z 06013KT 9999 SCT045 OVC055 05/M02 Q1007 NOSIG

Čas: 12:32 (11:32 UTC)

Předpověď počasí

Zpráva byla vytvořena před 7 minutami, v 11:25 UTC
Předpověď platná od 20 v 12 UTC do 21 v 12 UTC
Východoseverovýchodní vítr 12 kt
Viditelnost 10 km a více
Oblačno až skoro zataženo ve výšce 4000 ft
Pravděpodobnost 40% :
Dočasný
od 20 v 23 UTC do 21 v 12 UTC
Východoseverovýchodní vítr 18 kt s nárazy do 30 kt

TAF: LDPL 201125Z 2012/2112 06012KT 9999 BKN040 TX06/2012Z TN03/2103Z PROB40 TEMPO 2023/2112 06018G30KT

Stav a předpovědi počasí z více než 4 000 letišť (zprávy METAR a TAF).

Červené a žluté tečky na mapě představují dostupné meteorologické stanice.

Když kurzor umístíte na tečku, zobrazí se název stanice.

Pak kliknutím zobrazíte stav a předpověď počasí.

Chcete-li změnit mapu, kliknutím na zelené tlačítko se znaménkem +mapu přiblížíte, kliknutím na zelené tlačítko se znaménkem – mapu oddálíte a kliknutím na zelené šipky přejdete na sousední mapy.


METAR-TAF: